createdAt,value
2019-06-07T00:00:40.300Z,13.10
2019-06-07T00:05:41.710Z,13.43
2019-06-07T00:10:43.784Z,16.43
2019-06-07T00:15:45.944Z,13.17
2019-06-07T00:20:48.034Z,14.07
2019-06-07T00:25:50.114Z,13.73
2019-06-07T00:30:52.816Z,14.83
2019-06-07T00:35:55.099Z,14.97
2019-06-07T00:40:57.147Z,14.83
2019-06-07T00:45:59.170Z,16.33
2019-06-07T00:51:01.206Z,14.17
2019-06-07T00:56:03.247Z,15.67
2019-06-07T01:01:05.447Z,15.17
2019-06-07T01:06:07.549Z,15.43
2019-06-07T01:11:09.632Z,16.33
2019-06-07T01:16:11.771Z,15.80
2019-06-07T01:21:15.905Z,16.30
2019-06-07T01:26:20.530Z,15.30
2019-06-07T01:31:24.850Z,16.47
2019-06-07T01:36:29.564Z,16.67
2019-06-07T01:41:30.711Z,15.03
2019-06-07T01:46:33.212Z,16.03
2019-06-07T01:51:35.584Z,16.77
2019-06-07T01:56:37.671Z,17.63
2019-06-07T02:01:39.718Z,17.50
2019-06-07T02:06:41.776Z,16.87
2019-06-07T02:11:43.855Z,17.23
2019-06-07T02:16:45.911Z,17.73
2019-06-07T02:21:47.970Z,16.27
2019-06-07T02:26:49.999Z,16.97
2019-06-07T02:31:52.037Z,15.27
2019-06-07T02:36:54.434Z,19.67
2019-06-07T02:41:56.846Z,16.43
2019-06-07T02:46:59.014Z,14.77
2019-06-07T02:52:01.361Z,15.63
2019-06-07T02:57:03.461Z,15.30
2019-06-07T03:02:05.528Z,15.40
2019-06-07T03:07:10.790Z,14.80
2019-06-07T03:12:14.224Z,14.43
2019-06-07T03:17:41.724Z,17.37
2019-06-07T03:22:43.759Z,15.27
2019-06-07T03:27:49.944Z,15.40
2019-06-07T03:32:52.105Z,16.07
2019-06-07T03:37:54.507Z,17.33
2019-06-07T03:42:56.604Z,15.67
2019-06-07T03:47:58.672Z,16.70
2019-06-07T03:53:00.709Z,21.40
2019-06-07T03:58:31.516Z,18.67
2019-06-07T04:03:06.669Z,17.43
2019-06-07T04:08:11.092Z,23.83
2019-06-07T04:13:13.138Z,19.43
2019-06-07T04:18:15.268Z,21.43
2019-06-07T04:23:27.855Z,20.63
2019-06-07T04:28:21.380Z,18.20
2019-06-07T04:33:24.193Z,21.17
2019-06-07T04:38:26.556Z,18.07
2019-06-07T04:43:31.464Z,24.27
2019-06-07T04:48:41.377Z,21.37
2019-06-07T04:53:43.078Z,16.47
2019-06-07T04:58:44.525Z,17.73
2019-06-07T05:03:46.558Z,20.67
2019-06-07T05:08:48.621Z,20.67
2019-06-07T05:13:50.677Z,20.63
2019-06-07T05:18:52.709Z,20.20
2019-06-07T05:24:06.602Z,19.23
2019-06-07T05:28:58.813Z,20.33
2019-06-07T05:34:00.864Z,20.43
2019-06-07T05:39:04.884Z,18.77
2019-06-07T05:44:12.839Z,18.03
2019-06-07T05:49:10.936Z,17.40
2019-06-07T05:54:12.994Z,17.53
2019-06-07T05:59:15.071Z,16.07
2019-06-07T06:04:19.642Z,19.43
2019-06-07T06:09:21.666Z,17.97
2019-06-07T06:14:23.704Z,16.67
2019-06-07T06:19:25.775Z,16.20
2019-06-07T06:24:28.868Z,18.53
2019-06-07T06:29:30.902Z,17.57
2019-06-07T06:34:40.158Z,15.43
2019-06-07T06:39:42.039Z,15.47
2019-06-07T06:44:46.411Z,17.67
2019-06-07T06:49:49.993Z,15.80
2019-06-07T06:55:00.156Z,15.63
2019-06-07T06:59:57.175Z,16.23
2019-06-07T07:04:59.235Z,15.67
2019-06-07T07:10:03.160Z,17.17
2019-06-07T07:15:06.664Z,16.17
2019-06-07T07:20:08.810Z,14.47
2019-06-07T07:25:11.192Z,18.32
2019-06-07T07:30:36.066Z,16.20
2019-06-07T07:35:17.986Z,17.60
2019-06-07T07:40:56.178Z,15.48
2019-06-07T07:45:23.987Z,13.93
2019-06-07T07:50:26.086Z,15.00
2019-06-07T07:55:28.221Z,16.65
2019-06-07T08:00:52.571Z,17.10
2019-06-07T08:05:42.921Z,15.32
2019-06-07T08:10:38.904Z,16.85
2019-06-07T08:15:40.958Z,15.70
2019-06-07T08:21:04.826Z,16.57
2019-06-07T08:25:47.183Z,16.25
2019-06-07T08:30:55.017Z,15.93
2019-06-07T08:41:10.734Z,15.15
2019-06-07T08:46:06.841Z,14.95
2019-06-07T08:51:08.184Z,13.85
2019-06-07T08:56:10.906Z,12.68
2019-06-07T09:01:13.103Z,11.73
2019-06-07T09:07:01.260Z,11.40
2019-06-07T09:11:19.104Z,10.88
2019-06-07T09:16:21.151Z,11.73
2019-06-07T09:21:23.237Z,11.50
2019-06-07T09:26:25.581Z,9.85
2019-06-07T09:31:51.073Z,11.65
2019-06-07T09:36:31.562Z,8.53
2019-06-07T09:41:46.957Z,9.83
2019-06-07T09:46:37.668Z,10.32
2019-06-07T09:51:39.797Z,11.20
2019-06-07T09:56:41.843Z,13.78
2019-06-07T10:01:43.891Z,10.23
2019-06-07T10:06:46.144Z,10.40
2019-06-07T10:11:48.334Z,10.82
2019-06-07T10:16:50.397Z,11.00
2019-06-07T10:21:52.431Z,11.75
2019-06-07T10:26:54.490Z,10.78
2019-06-07T10:31:56.622Z,10.20
2019-06-07T10:36:58.758Z,9.28
2019-06-07T10:42:00.993Z,8.33
2019-06-07T10:47:04.008Z,8.08
2019-06-07T10:52:07.998Z,8.83
2019-06-07T10:57:12.889Z,10.00
2019-06-07T11:02:14.282Z,10.35
2019-06-07T11:07:16.462Z,9.23
2019-06-07T11:12:19.270Z,9.53
2019-06-07T11:17:21.282Z,9.38
2019-06-07T11:22:26.085Z,9.65
2019-06-07T11:27:28.157Z,7.72
2019-06-07T11:32:30.731Z,7.87
2019-06-07T11:37:33.035Z,7.10
2019-06-07T11:42:35.127Z,8.50
2019-06-07T11:47:37.547Z,8.53
2019-06-07T11:52:39.574Z,6.70
2019-06-07T11:57:41.645Z,7.70
2019-06-07T12:02:43.707Z,7.22
2019-06-07T12:07:48.779Z,8.15
2019-06-07T12:12:50.809Z,6.95
2019-06-07T12:17:52.866Z,7.75
2019-06-07T12:22:54.904Z,7.58
2019-06-07T12:27:58.296Z,6.87
2019-06-07T12:33:00.342Z,6.62
2019-06-07T12:38:02.478Z,11.15
2019-06-07T12:43:04.527Z,5.40
2019-06-07T12:48:06.884Z,6.20
2019-06-07T12:53:09.316Z,5.37
2019-06-07T12:58:11.342Z,8.18
2019-06-07T13:03:14.231Z,7.37
2019-06-07T13:08:17.613Z,6.12
2019-06-07T13:13:20.986Z,6.50
2019-06-07T13:18:25.198Z,8.65
2019-06-07T13:23:28.900Z,7.05
2019-06-07T13:28:31.894Z,7.33
2019-06-07T13:33:38.670Z,6.33
2019-06-07T13:38:38.215Z,7.08
2019-06-07T13:43:40.377Z,6.62
2019-06-07T13:48:42.485Z,8.23
2019-06-07T13:53:44.580Z,6.85
2019-06-07T13:58:48.638Z,7.25
2019-06-07T14:03:50.830Z,6.08
2019-06-07T14:08:54.787Z,6.55
2019-06-07T14:13:58.734Z,6.10
2019-06-07T14:19:00.834Z,8.20
2019-06-07T14:24:03.103Z,7.72
2019-06-07T14:29:05.196Z,7.87
2019-06-07T14:34:07.341Z,9.28
2019-06-07T14:39:09.477Z,7.67
2019-06-07T14:44:11.534Z,7.65
2019-06-07T14:49:13.737Z,8.33
2019-06-07T14:54:15.902Z,8.65
2019-06-07T14:59:18.382Z,7.70
2019-06-07T15:04:20.448Z,7.92
2019-06-07T15:09:22.544Z,8.20
2019-06-07T15:14:24.830Z,8.35
2019-06-07T15:19:29.055Z,10.15
2019-06-07T15:24:35.354Z,10.90
2019-06-07T15:29:35.973Z,9.53
2019-06-07T15:34:38.456Z,10.82
2019-06-07T15:39:40.846Z,10.72
2019-06-07T15:44:42.887Z,10.82
2019-06-07T15:49:46.304Z,11.08
2019-06-07T15:54:48.393Z,15.23
2019-06-07T15:59:50.495Z,11.45
2019-06-07T16:04:57.186Z,10.05
2019-06-07T16:09:59.376Z,10.32
2019-06-07T16:15:01.687Z,10.05
2019-06-07T16:20:05.298Z,9.40
2019-06-07T16:25:09.565Z,9.10
2019-06-07T16:30:12.493Z,8.55
2019-06-07T16:35:23.371Z,7.53
2019-06-07T16:40:55.776Z,8.83
2019-06-07T16:46:03.370Z,6.35
2019-06-07T16:51:07.905Z,6.53
2019-06-07T16:56:10.112Z,6.62
2019-06-07T17:01:12.386Z,6.40
2019-06-07T17:06:17.482Z,6.85
2019-06-07T17:11:19.595Z,5.50
2019-06-07T17:16:24.405Z,6.25
2019-06-07T17:21:26.496Z,6.42
2019-06-07T17:26:28.607Z,5.78
2019-06-07T17:31:30.693Z,6.40
2019-06-07T17:36:32.722Z,6.30
2019-06-07T17:41:50.674Z,7.67
2019-06-07T17:46:39.367Z,6.87
2019-06-07T17:51:41.768Z,6.30
2019-06-07T17:56:44.559Z,7.80
2019-06-07T18:02:06.747Z,6.15
2019-06-07T18:06:53.624Z,6.97
2019-06-07T18:11:56.310Z,6.35
2019-06-07T18:16:59.019Z,7.83
2019-06-07T18:22:04.124Z,6.60
2019-06-07T18:27:07.221Z,6.47
2019-06-07T18:32:12.660Z,6.30
2019-06-07T18:37:13.484Z,8.20
2019-06-07T18:42:15.527Z,6.92
2019-06-07T18:47:17.590Z,6.87
2019-06-07T18:52:24.473Z,5.97
2019-06-07T18:57:26.527Z,6.67
2019-06-07T19:02:28.633Z,7.00
2019-06-07T19:07:30.711Z,7.30
2019-06-07T19:12:34.348Z,7.22
2019-06-07T19:17:39.423Z,7.17
2019-06-07T19:22:41.581Z,7.35
2019-06-07T19:27:43.682Z,6.67
2019-06-07T19:32:45.803Z,6.90
2019-06-07T19:37:47.897Z,6.65
2019-06-07T19:42:49.973Z,7.85
2019-06-07T19:47:52.385Z,7.75
2019-06-07T19:52:55.242Z,7.12
2019-06-07T19:57:57.589Z,8.85
2019-06-07T20:02:59.984Z,8.35
2019-06-07T20:08:02.816Z,7.67
2019-06-07T20:13:05.310Z,7.28
2019-06-07T20:18:07.763Z,8.35
2019-06-07T20:23:10.061Z,7.85
2019-06-07T20:28:12.182Z,8.08
2019-06-07T20:33:14.262Z,9.23
2019-06-07T20:38:16.278Z,8.40
2019-06-07T20:43:20.671Z,9.35
2019-06-07T20:48:22.735Z,11.03
2019-06-07T20:53:24.976Z,9.80
2019-06-07T20:58:27.022Z,8.73
2019-06-07T21:03:29.085Z,9.30
2019-06-07T21:08:31.153Z,8.83
2019-06-07T21:13:33.186Z,9.40
2019-06-07T21:18:35.250Z,9.65
2019-06-07T21:23:37.414Z,9.05
2019-06-07T21:28:39.934Z,9.70
2019-06-07T21:33:42.959Z,9.93
2019-06-07T21:38:44.995Z,9.93
2019-06-07T21:43:47.007Z,10.20
2019-06-07T21:48:49.043Z,10.10
2019-06-07T21:53:51.101Z,10.38
2019-06-07T21:58:53.330Z,9.55
2019-06-07T22:03:55.373Z,9.15
2019-06-07T22:08:57.423Z,9.25
2019-06-07T22:13:59.560Z,10.03
2019-06-07T22:19:01.647Z,9.73
2019-06-07T22:24:04.794Z,9.10
2019-06-07T22:29:08.157Z,8.68
2019-06-07T22:34:10.712Z,12.35
2019-06-07T22:39:13.942Z,6.55
2019-06-07T22:44:16.114Z,6.50
2019-06-07T22:49:19.517Z,5.62
2019-06-07T22:54:21.969Z,3.72
2019-06-07T22:59:24.056Z,4.62
2019-06-07T23:04:26.095Z,6.92
2019-06-07T23:09:28.126Z,6.83
2019-06-07T23:14:30.147Z,7.03
2019-06-07T23:19:32.191Z,4.60
2019-06-07T23:24:34.112Z,4.33
2019-06-07T23:29:36.182Z,3.47
2019-06-07T23:34:38.237Z,3.40
2019-06-07T23:39:40.255Z,4.55
2019-06-07T23:44:42.508Z,3.27
2019-06-07T23:49:44.583Z,2.93
2019-06-07T23:54:46.628Z,3.70
2019-06-07T23:59:48.661Z,2.92
